createdAt,value
2023-01-13T00:01:50.659Z,1.24
2023-01-13T00:04:20.056Z,1.31
2023-01-13T00:06:49.283Z,1.30
2023-01-13T00:09:18.373Z,1.32
2023-01-13T00:11:48.973Z,1.34
2023-01-13T00:14:18.437Z,1.52
2023-01-13T00:16:50.192Z,1.42
2023-01-13T00:19:20.316Z,1.34
2023-01-13T00:21:49.917Z,1.28
2023-01-13T00:24:19.039Z,1.30
2023-01-13T00:26:49.485Z,1.20
2023-01-13T00:29:18.765Z,1.18
2023-01-13T00:31:49.837Z,1.25
2023-01-13T00:34:18.940Z,1.16
2023-01-13T00:36:48.093Z,0.97
2023-01-13T00:39:17.726Z,0.99
2023-01-13T00:42:04.257Z,0.86
2023-01-13T00:44:36.907Z,0.79
2023-01-13T00:47:06.303Z,0.84
2023-01-13T00:49:35.658Z,0.72
2023-01-13T00:52:04.822Z,0.85
2023-01-13T00:54:34.044Z,1.02
2023-01-13T00:57:03.694Z,0.95
2023-01-13T00:59:34.347Z,0.99
2023-01-13T01:02:03.802Z,0.98
2023-01-13T01:04:32.975Z,0.92
2023-01-13T01:07:02.311Z,0.89
2023-01-13T01:09:33.595Z,0.90
2023-01-13T01:12:02.986Z,0.93
2023-01-13T01:14:32.494Z,0.82
2023-01-13T01:17:03.122Z,0.74
2023-01-13T01:19:32.395Z,0.63
2023-01-13T01:22:01.576Z,0.56
2023-01-13T01:24:30.962Z,0.46
2023-01-13T01:27:00.140Z,0.52
2023-01-13T01:29:29.233Z,0.52
2023-01-13T01:31:59.739Z,0.49
2023-01-13T01:34:30.387Z,0.63
2023-01-13T01:36:59.425Z,0.57
2023-01-13T01:39:28.890Z,0.54
2023-01-13T01:42:15.682Z,0.66
2023-01-13T01:45:03.245Z,0.75
2023-01-13T01:47:33.428Z,0.73
2023-01-13T01:50:05.321Z,0.83
2023-01-13T01:52:38.530Z,0.78
2023-01-13T01:55:15.323Z,0.69
2023-01-13T01:57:50.329Z,0.49
2023-01-13T02:00:19.679Z,0.33
2023-01-13T02:02:51.633Z,0.25
2023-01-13T02:05:22.858Z,0.18
2023-01-13T02:07:55.989Z,0.24
2023-01-13T02:10:29.017Z,0.12
2023-01-13T02:13:02.446Z,0.06
2023-01-13T02:15:39.160Z,0.17
2023-01-13T02:18:37.628Z,0.12
2023-01-13T02:21:38.023Z,0.01
2023-01-13T02:24:53.790Z,-0.04
2023-01-13T02:27:45.936Z,-0.16
2023-01-13T02:30:50.027Z,-0.13
2023-01-13T02:33:34.352Z,-0.15
2023-01-13T02:36:12.709Z,-0.21
2023-01-13T02:38:52.202Z,-0.20
2023-01-13T02:41:49.560Z,-0.19
2023-01-13T02:44:26.826Z,-0.21
2023-01-13T02:47:00.650Z,0.04
2023-01-13T02:49:39.471Z,0.15
2023-01-13T02:52:14.095Z,0.29
2023-01-13T02:54:49.035Z,0.34
2023-01-13T02:57:19.670Z,0.34
2023-01-13T02:59:50.313Z,0.31
2023-01-13T03:02:24.189Z,0.12
2023-01-13T03:04:56.664Z,0.07
2023-01-13T03:08:00.788Z,0.03
2023-01-13T03:11:00.954Z,0.06
2023-01-13T03:13:57.255Z,0.15
2023-01-13T03:16:36.655Z,0.16
2023-01-13T03:19:26.855Z,0.18
2023-01-13T03:22:00.596Z,0.23
2023-01-13T03:24:36.460Z,0.32
2023-01-13T03:27:10.828Z,0.33
2023-01-13T03:29:45.608Z,0.26
2023-01-13T03:32:21.718Z,0.27
2023-01-13T03:34:55.385Z,0.30
2023-01-13T03:37:32.503Z,0.49
2023-01-13T03:40:08.235Z,0.60
2023-01-13T03:42:39.507Z,0.86
2023-01-13T03:45:13.442Z,0.72
2023-01-13T03:47:47.471Z,0.57
2023-01-13T03:50:22.046Z,0.52
2023-01-13T03:52:57.262Z,0.49
2023-01-13T03:55:33.007Z,0.51
2023-01-13T03:58:10.502Z,0.54
2023-01-13T04:00:48.626Z,0.58
2023-01-13T04:03:26.261Z,0.56
2023-01-13T04:06:05.711Z,0.60
2023-01-13T04:08:36.169Z,0.59
2023-01-13T04:11:13.219Z,0.76
2023-01-13T04:13:43.381Z,0.63
2023-01-13T04:16:14.106Z,0.61
2023-01-13T04:18:43.207Z,0.74
2023-01-13T04:21:13.908Z,0.70
2023-01-13T04:23:43.047Z,0.67
2023-01-13T04:26:12.134Z,0.71
2023-01-13T04:28:41.355Z,0.65
2023-01-13T04:31:10.483Z,0.64
2023-01-13T04:33:39.625Z,0.59
2023-01-13T04:36:09.752Z,0.62
2023-01-13T04:38:40.263Z,0.63
2023-01-13T04:41:09.375Z,0.78
2023-01-13T04:43:38.503Z,0.79
2023-01-13T04:46:07.753Z,0.84
2023-01-13T04:48:36.906Z,0.89
2023-01-13T04:51:06.224Z,0.79
2023-01-13T04:53:35.360Z,0.76
2023-01-13T04:56:06.634Z,0.71
2023-01-13T04:58:35.730Z,0.65
2023-01-13T05:01:04.837Z,0.64
2023-01-13T05:03:33.958Z,0.59
2023-01-13T05:06:03.130Z,0.61
2023-01-13T05:08:32.154Z,0.67
2023-01-13T05:11:24.054Z,0.67
2023-01-13T05:14:14.526Z,0.69
2023-01-13T05:17:01.745Z,0.66
2023-01-13T05:19:33.971Z,0.74
2023-01-13T05:22:22.166Z,0.70
2023-01-13T05:25:08.657Z,0.74
2023-01-13T05:27:37.978Z,0.79
2023-01-13T05:30:11.912Z,0.78
2023-01-13T05:32:41.623Z,0.81
2023-01-13T05:35:11.199Z,0.79
2023-01-13T05:37:40.556Z,0.77
2023-01-13T05:40:29.262Z,0.92
2023-01-13T05:43:24.962Z,0.91
2023-01-13T05:45:59.871Z,0.80
2023-01-13T05:48:31.932Z,0.82
2023-01-13T05:51:01.261Z,0.80
2023-01-13T05:53:30.998Z,0.61
2023-01-13T05:56:00.687Z,0.55
2023-01-13T05:58:29.750Z,0.53
2023-01-13T06:01:04.803Z,0.53
2023-01-13T06:03:34.225Z,0.54
2023-01-13T06:06:04.208Z,0.54
2023-01-13T06:08:34.085Z,0.58
2023-01-13T06:11:03.278Z,0.62
2023-01-13T06:13:32.455Z,0.54
2023-01-13T06:16:03.093Z,0.53
2023-01-13T06:18:32.260Z,0.53
2023-01-13T06:21:01.395Z,0.53
2023-01-13T06:23:35.019Z,0.52
2023-01-13T06:26:11.225Z,0.50
2023-01-13T06:28:40.409Z,0.51
2023-01-13T06:31:12.036Z,0.48
2023-01-13T06:33:46.480Z,0.48
2023-01-13T06:36:22.321Z,0.51
2023-01-13T06:38:56.242Z,0.46
2023-01-13T06:41:39.356Z,0.47
2023-01-13T06:44:08.637Z,0.52
2023-01-13T06:46:39.487Z,0.53
2023-01-13T06:49:08.685Z,0.66
2023-01-13T06:51:37.804Z,0.90
2023-01-13T06:54:07.270Z,1.01
2023-01-13T06:56:36.579Z,1.08
2023-01-13T06:59:05.728Z,0.96
2023-01-13T07:01:35.067Z,0.88
2023-01-13T07:04:05.782Z,1.10
2023-01-13T07:06:34.944Z,0.97
2023-01-13T07:09:06.020Z,0.97
2023-01-13T07:11:35.908Z,0.98
2023-01-13T07:14:22.665Z,0.83
2023-01-13T07:16:53.433Z,0.84
2023-01-13T07:19:24.394Z,0.91
2023-01-13T07:21:54.167Z,0.97
2023-01-13T07:24:23.657Z,1.02
2023-01-13T07:26:53.549Z,1.12
2023-01-13T07:29:22.638Z,1.24
2023-01-13T07:31:52.010Z,1.29
2023-01-13T07:34:21.293Z,1.35
2023-01-13T07:36:51.851Z,1.41
2023-01-13T07:39:20.951Z,1.45
2023-01-13T07:42:07.578Z,1.49
2023-01-13T07:44:36.822Z,1.54
2023-01-13T07:47:08.611Z,1.61
2023-01-13T07:49:37.758Z,1.65
2023-01-13T07:52:09.052Z,1.61
2023-01-13T07:54:40.936Z,1.65
2023-01-13T07:57:10.459Z,1.73
2023-01-13T07:59:39.527Z,1.90
2023-01-13T08:02:13.207Z,2.07
2023-01-13T08:04:42.501Z,2.23
2023-01-13T08:07:14.903Z,2.48
2023-01-13T08:09:43.997Z,2.62
2023-01-13T08:12:35.926Z,2.63
2023-01-13T08:15:06.047Z,2.72
2023-01-13T08:17:35.307Z,2.72
2023-01-13T08:20:05.333Z,2.86
2023-01-13T08:22:36.177Z,2.94
2023-01-13T08:25:06.264Z,2.99
2023-01-13T08:27:35.686Z,3.05
2023-01-13T08:30:05.872Z,3.03
2023-01-13T08:32:35.207Z,3.11
2023-01-13T08:35:04.565Z,3.12
2023-01-13T08:37:35.160Z,3.18
2023-01-13T08:40:04.917Z,3.35
2023-01-13T08:42:34.095Z,3.46
2023-01-13T08:45:03.293Z,3.51
2023-01-13T08:47:32.636Z,3.65
2023-01-13T08:50:04.378Z,3.76
2023-01-13T08:52:39.275Z,3.87
2023-01-13T08:55:09.756Z,3.93
2023-01-13T08:57:39.657Z,4.01
2023-01-13T09:00:11.881Z,4.07
2023-01-13T09:02:41.176Z,4.10
2023-01-13T09:05:12.269Z,4.19
2023-01-13T09:07:43.332Z,4.25
2023-01-13T09:10:12.952Z,4.32
2023-01-13T09:12:59.858Z,4.38
2023-01-13T09:15:29.256Z,4.42
2023-01-13T09:17:58.579Z,4.51
2023-01-13T09:20:27.929Z,4.59
2023-01-13T09:22:59.376Z,4.65
2023-01-13T09:25:28.484Z,4.83
2023-01-13T09:27:58.575Z,4.95
2023-01-13T09:30:28.007Z,5.23
2023-01-13T09:33:13.426Z,5.40
2023-01-13T09:35:42.483Z,5.66
2023-01-13T09:38:13.496Z,5.78
2023-01-13T09:40:43.948Z,5.92
2023-01-13T09:43:38.784Z,6.03
2023-01-13T09:46:36.256Z,6.21
2023-01-13T09:49:08.103Z,6.37
2023-01-13T09:51:45.826Z,6.37
2023-01-13T09:54:26.810Z,6.38
2023-01-13T09:56:56.946Z,6.16
2023-01-13T09:59:32.017Z,6.16
2023-01-13T10:02:15.179Z,6.22
2023-01-13T10:04:44.570Z,6.38
2023-01-13T10:07:15.728Z,6.68
2023-01-13T10:09:53.875Z,6.84
2023-01-13T10:12:45.350Z,7.04
2023-01-13T10:15:19.784Z,7.21
2023-01-13T10:17:56.474Z,7.30
2023-01-13T10:20:36.227Z,7.42
2023-01-13T10:23:21.798Z,7.55
2023-01-13T10:26:02.257Z,7.59
2023-01-13T10:28:31.631Z,7.64
2023-01-13T10:31:01.043Z,7.62
2023-01-13T10:33:30.457Z,7.63
2023-01-13T10:36:01.897Z,7.58
2023-01-13T10:38:38.052Z,7.42
2023-01-13T10:41:24.789Z,7.28
2023-01-13T10:44:04.713Z,7.33
2023-01-13T10:46:36.617Z,7.34
2023-01-13T10:49:33.581Z,7.31
2023-01-13T10:52:04.805Z,7.33
2023-01-13T10:54:53.426Z,7.41
2023-01-13T10:57:27.044Z,7.49
2023-01-13T10:59:56.717Z,7.61
2023-01-13T11:02:29.897Z,7.65
2023-01-13T11:05:22.871Z,7.79
2023-01-13T11:07:58.066Z,7.75
2023-01-13T11:10:31.350Z,7.79
2023-01-13T11:13:11.438Z,7.76
2023-01-13T11:15:53.835Z,7.76
2023-01-13T11:18:32.375Z,7.73
2023-01-13T11:21:05.518Z,7.77
2023-01-13T11:23:41.311Z,7.76
2023-01-13T11:26:19.539Z,7.81
2023-01-13T11:28:58.921Z,7.76
2023-01-13T11:31:34.772Z,7.71
2023-01-13T11:34:14.634Z,7.70
2023-01-13T11:36:47.750Z,7.85
2023-01-13T11:39:24.509Z,8.04
2023-01-13T11:42:19.968Z,8.12
2023-01-13T11:45:04.436Z,8.23
2023-01-13T11:47:36.460Z,8.39
2023-01-13T11:50:15.158Z,8.57
2023-01-13T11:53:08.762Z,8.93
2023-01-13T11:55:51.165Z,9.18
2023-01-13T11:59:06.921Z,9.56
2023-01-13T12:01:53.001Z,9.60
2023-01-13T12:04:29.263Z,9.87
2023-01-13T12:07:15.142Z,9.98
2023-01-13T12:10:03.556Z,10.01
2023-01-13T12:12:52.160Z,9.99
2023-01-13T12:15:52.932Z,9.92
2023-01-13T12:18:41.799Z,9.90
2023-01-13T12:21:21.348Z,10.03
2023-01-13T12:24:05.769Z,10.22
2023-01-13T12:26:42.371Z,10.31
2023-01-13T12:29:18.904Z,10.39
2023-01-13T12:31:50.648Z,10.66
2023-01-13T12:34:44.681Z,10.70
2023-01-13T12:37:23.110Z,10.76
2023-01-13T12:40:13.688Z,10.80
2023-01-13T12:43:07.258Z,10.83
2023-01-13T12:45:36.614Z,10.88
2023-01-13T12:48:06.928Z,10.96
2023-01-13T12:51:01.703Z,11.08
2023-01-13T12:53:38.626Z,11.07
2023-01-13T12:56:40.019Z,10.93
2023-01-13T12:59:35.747Z,10.77
2023-01-13T13:02:37.970Z,10.52
2023-01-13T13:05:47.927Z,10.51
2023-01-13T13:08:25.364Z,10.28
2023-01-13T13:11:03.154Z,10.06
2023-01-13T13:13:45.870Z,9.85
2023-01-13T13:16:52.018Z,9.66
2023-01-13T13:19:49.867Z,9.51
2023-01-13T13:22:40.198Z,9.35
2023-01-13T13:25:26.501Z,9.18
2023-01-13T13:28:19.254Z,9.00
2023-01-13T13:31:09.718Z,8.89
2023-01-13T13:34:11.731Z,8.69
2023-01-13T13:37:10.002Z,8.66
2023-01-13T13:40:01.612Z,8.51
2023-01-13T13:42:59.228Z,8.39
2023-01-13T13:45:47.186Z,8.23
2023-01-13T13:48:24.853Z,8.10
2023-01-13T13:50:58.285Z,7.93
2023-01-13T13:53:32.091Z,7.85
2023-01-13T13:56:07.371Z,7.79
2023-01-13T13:58:38.834Z,7.74
2023-01-13T14:01:08.305Z,7.72
2023-01-13T14:03:40.251Z,7.68
2023-01-13T14:06:24.285Z,7.67
2023-01-13T14:08:53.358Z,7.61
2023-01-13T14:11:29.944Z,7.53
2023-01-13T14:14:05.891Z,7.48
2023-01-13T14:16:36.457Z,7.43
2023-01-13T14:19:07.340Z,7.36
2023-01-13T14:21:36.863Z,7.32
2023-01-13T14:24:16.576Z,7.24
2023-01-13T14:26:51.411Z,7.20
2023-01-13T14:29:24.893Z,7.12
2023-01-13T14:31:55.738Z,7.07
2023-01-13T14:34:33.297Z,7.02
2023-01-13T14:37:03.154Z,6.91
2023-01-13T14:39:38.944Z,6.82
2023-01-13T14:42:14.721Z,6.77
2023-01-13T14:44:48.580Z,6.74
2023-01-13T14:47:26.969Z,6.68
2023-01-13T14:50:02.728Z,6.62
2023-01-13T14:52:35.970Z,6.60
2023-01-13T14:55:29.860Z,6.51
2023-01-13T14:58:31.848Z,6.37
2023-01-13T15:01:36.278Z,6.26
2023-01-13T15:04:18.337Z,6.10
2023-01-13T15:06:49.313Z,6.01
2023-01-13T15:09:26.770Z,5.93
2023-01-13T15:11:58.818Z,5.88
2023-01-13T15:14:33.773Z,5.83
2023-01-13T15:17:21.243Z,5.76
2023-01-13T15:19:50.739Z,5.75
2023-01-13T15:22:20.638Z,5.72
2023-01-13T15:24:50.262Z,5.65
2023-01-13T15:27:23.521Z,5.55
2023-01-13T15:29:56.137Z,5.55
2023-01-13T15:32:26.797Z,5.52
2023-01-13T15:34:56.325Z,5.53
2023-01-13T15:37:25.774Z,5.52
2023-01-13T15:39:55.141Z,5.55
2023-01-13T15:42:41.898Z,5.54
2023-01-13T15:45:32.366Z,5.51
2023-01-13T15:48:07.353Z,5.50
2023-01-13T15:50:37.127Z,5.50
2023-01-13T15:53:07.902Z,5.49
2023-01-13T15:55:39.605Z,5.50
2023-01-13T15:58:09.497Z,5.49
2023-01-13T16:00:39.957Z,5.41
2023-01-13T16:03:13.999Z,5.35
2023-01-13T16:05:44.046Z,5.35
2023-01-13T16:08:16.212Z,5.33
2023-01-13T16:10:46.656Z,5.31
2023-01-13T16:13:17.860Z,5.26
2023-01-13T16:15:50.420Z,5.24
2023-01-13T16:18:24.376Z,5.17
2023-01-13T16:20:55.320Z,5.10
2023-01-13T16:23:25.108Z,5.07
2023-01-13T16:25:54.335Z,5.06
2023-01-13T16:28:28.396Z,5.02
2023-01-13T16:30:58.659Z,4.97
2023-01-13T16:33:29.905Z,4.93
2023-01-13T16:36:10.842Z,4.97
2023-01-13T16:38:42.480Z,4.90
2023-01-13T16:41:11.862Z,4.93
2023-01-13T16:43:41.292Z,5.19
2023-01-13T16:46:25.030Z,5.16
2023-01-13T16:48:58.672Z,4.86
2023-01-13T16:51:27.975Z,4.81
2023-01-13T16:53:57.271Z,4.75
2023-01-13T16:56:28.348Z,4.66
2023-01-13T16:59:01.424Z,4.62
2023-01-13T17:01:32.827Z,4.64
2023-01-13T17:04:04.359Z,4.88
2023-01-13T17:06:38.899Z,4.67
2023-01-13T17:09:18.984Z,4.54
2023-01-13T17:11:48.457Z,4.41
2023-01-13T17:14:19.635Z,4.34
2023-01-13T17:16:49.414Z,4.35
2023-01-13T17:19:20.943Z,4.38
2023-01-13T17:21:51.137Z,4.26
2023-01-13T17:24:20.833Z,4.20
2023-01-13T17:26:51.805Z,4.13
2023-01-13T17:29:25.876Z,4.03
2023-01-13T17:31:57.336Z,4.00
2023-01-13T17:34:28.577Z,3.98
2023-01-13T17:36:58.072Z,3.95
2023-01-13T17:39:28.321Z,3.95
2023-01-13T17:41:57.628Z,3.93
2023-01-13T17:44:26.824Z,3.93
2023-01-13T17:46:58.329Z,3.97
2023-01-13T17:49:29.044Z,3.86
2023-01-13T17:51:58.275Z,3.87
2023-01-13T17:54:27.714Z,3.93
2023-01-13T17:56:56.945Z,3.80
2023-01-13T17:59:26.196Z,3.80
2023-01-13T18:01:55.682Z,3.72
2023-01-13T18:04:28.176Z,3.70
2023-01-13T18:06:58.904Z,3.75
2023-01-13T18:09:28.159Z,3.65
2023-01-13T18:11:57.351Z,3.61
2023-01-13T18:14:26.708Z,3.66
2023-01-13T18:16:55.893Z,3.73
2023-01-13T18:19:42.840Z,3.77
2023-01-13T18:22:32.777Z,3.81
2023-01-13T18:25:21.293Z,3.78
2023-01-13T18:27:51.060Z,3.78
2023-01-13T18:30:20.529Z,3.75
2023-01-13T18:32:52.543Z,3.82
2023-01-13T18:35:21.725Z,3.89
2023-01-13T18:37:52.514Z,3.72
2023-01-13T18:40:21.912Z,3.85
2023-01-13T18:42:55.209Z,3.94
2023-01-13T18:45:27.112Z,3.90
2023-01-13T18:47:59.681Z,3.75
2023-01-13T18:50:29.320Z,3.80
2023-01-13T18:53:00.632Z,3.77
2023-01-13T18:55:30.516Z,3.69
2023-01-13T18:58:00.747Z,3.59
2023-01-13T19:00:35.770Z,3.81
2023-01-13T19:05:38.305Z,3.88
2023-01-13T19:08:10.123Z,3.94
2023-01-13T19:10:40.848Z,3.81
2023-01-13T19:13:10.253Z,3.65
2023-01-13T19:15:41.938Z,3.51
2023-01-13T19:18:13.385Z,3.39
2023-01-13T19:20:42.962Z,3.37
2023-01-13T19:23:14.064Z,3.34
2023-01-13T19:25:43.537Z,3.39
2023-01-13T19:28:15.737Z,3.44
2023-01-13T19:30:45.194Z,3.44
2023-01-13T19:33:14.840Z,3.44
2023-01-13T19:35:44.332Z,3.44
2023-01-13T19:38:14.901Z,3.50
2023-01-13T19:40:44.045Z,3.67
2023-01-13T19:43:31.146Z,3.86
2023-01-13T19:46:00.318Z,3.65
2023-01-13T19:48:30.931Z,3.49
2023-01-13T19:51:00.863Z,3.43
2023-01-13T19:53:32.614Z,3.38
2023-01-13T19:56:04.921Z,3.48
2023-01-13T19:58:34.565Z,3.50
2023-01-13T20:01:09.903Z,3.64
2023-01-13T20:03:39.128Z,3.65
2023-01-13T20:06:10.057Z,3.88
2023-01-13T20:08:40.851Z,4.11
2023-01-13T20:11:27.697Z,4.23
2023-01-13T20:13:57.821Z,4.02
2023-01-13T20:16:27.409Z,3.83
2023-01-13T20:18:59.281Z,4.04
2023-01-13T20:21:28.571Z,3.89
2023-01-13T20:23:59.442Z,3.87
2023-01-13T20:26:28.925Z,3.97
2023-01-13T20:28:59.163Z,3.85
2023-01-13T20:31:28.517Z,3.76
2023-01-13T20:33:58.560Z,3.76
2023-01-13T20:36:31.525Z,3.77
2023-01-13T20:39:04.670Z,3.77
2023-01-13T20:41:51.516Z,3.78
2023-01-13T20:44:20.959Z,3.78
2023-01-13T20:46:54.367Z,3.71
2023-01-13T20:49:27.163Z,3.74
2023-01-13T20:51:57.159Z,3.63
2023-01-13T20:54:29.357Z,3.71
2023-01-13T20:57:00.519Z,3.88
2023-01-13T20:59:29.908Z,3.60
2023-01-13T21:01:59.363Z,3.47
2023-01-13T21:04:40.005Z,3.28
2023-01-13T21:07:09.977Z,3.17
2023-01-13T21:09:40.541Z,3.22
2023-01-13T21:12:32.346Z,3.06
2023-01-13T21:15:20.574Z,2.95
2023-01-13T21:18:09.702Z,2.81
2023-01-13T21:20:40.229Z,2.69
2023-01-13T21:23:10.897Z,2.64
2023-01-13T21:25:42.604Z,2.61
2023-01-13T21:28:13.558Z,2.69
2023-01-13T21:30:45.623Z,2.43
2023-01-13T21:33:15.418Z,2.24
2023-01-13T21:35:44.625Z,2.18
2023-01-13T21:38:13.930Z,2.12
2023-01-13T21:40:44.783Z,2.10
2023-01-13T21:43:31.742Z,2.12
2023-01-13T21:46:18.964Z,1.97
2023-01-13T21:48:48.286Z,1.92
2023-01-13T21:51:17.994Z,1.84
2023-01-13T21:53:47.208Z,2.10
2023-01-13T21:56:18.851Z,2.19
2023-01-13T21:58:48.165Z,2.03
2023-01-13T22:01:17.539Z,1.76
2023-01-13T22:04:04.628Z,1.55
2023-01-13T22:06:33.920Z,1.63
2023-01-13T22:09:03.204Z,1.59
2023-01-13T22:11:34.441Z,1.44
2023-01-13T22:14:10.276Z,1.39
2023-01-13T22:16:45.269Z,1.36
2023-01-13T22:19:15.070Z,1.28
2023-01-13T22:21:44.642Z,1.25
2023-01-13T22:24:13.749Z,1.18
2023-01-13T22:26:44.296Z,1.07
2023-01-13T22:29:13.442Z,1.00
2023-01-13T22:31:42.571Z,0.99
2023-01-13T22:34:13.597Z,0.99
2023-01-13T22:36:42.744Z,1.17
2023-01-13T22:39:12.399Z,1.02
2023-01-13T22:41:43.054Z,1.00
2023-01-13T22:44:12.206Z,1.00
2023-01-13T22:46:42.010Z,1.41
2023-01-13T22:49:13.096Z,1.36
2023-01-13T22:51:42.594Z,1.11
2023-01-13T22:54:12.696Z,1.07
2023-01-13T22:56:43.602Z,1.03
2023-01-13T22:59:16.072Z,1.10
2023-01-13T23:01:45.519Z,1.50
2023-01-13T23:04:14.802Z,1.37
2023-01-13T23:06:43.952Z,1.23
2023-01-13T23:09:13.247Z,1.18
2023-01-13T23:11:43.948Z,1.14
2023-01-13T23:14:14.350Z,1.05
2023-01-13T23:16:43.760Z,1.49
2023-01-13T23:19:13.006Z,1.16
2023-01-13T23:21:42.575Z,1.18
2023-01-13T23:24:11.946Z,1.08
2023-01-13T23:26:41.566Z,0.97
2023-01-13T23:29:14.309Z,0.82
2023-01-13T23:31:43.510Z,0.82
2023-01-13T23:34:12.691Z,0.81
2023-01-13T23:36:43.461Z,0.79
2023-01-13T23:39:12.676Z,0.82
2023-01-13T23:41:42.000Z,0.98
2023-01-13T23:44:12.769Z,1.24
2023-01-13T23:46:42.325Z,1.15
2023-01-13T23:49:11.408Z,1.06
2023-01-13T23:51:40.570Z,1.12
2023-01-13T23:54:09.816Z,0.83
2023-01-13T23:56:39.721Z,0.70
2023-01-13T23:59:08.834Z,0.85
